DAL1628 KSEA-KLAX
Flight info
| Callsign | DAL1628 |
|---|---|
| Flight time | 2h 8m |
| Altitude | 37000 |
| Route | OZWLD1 OZWLD KPOWW SEA152033 JINMO Q7 JAGWA BURGL IRNMN2 |
| Aircraft | A320/M-SDE3FGHIRWY/LB1 |
Departure
| Time | 2026-04-26 19:52 |
|---|---|
| Airport | Seattle–Tacoma International Airport (KSEA) |
Arrival
| Time | 2026-04-26 22:01 |
|---|---|
| Airport | Los Angeles International Airport (KLAX) |
| Time | Latitude | Longitude | Altitude | Speed | Heading |
|---|---|---|---|---|---|
| 2026-04-26 19:02 | 47.44252 | -122.30397 | 432 ft | 0 kts | 144° |
| 2026-04-26 19:43 | 47.44263 | -122.30410 | 422 ft | 3 kts | 138° |
| 2026-04-26 19:43 | 47.44279 | -122.30434 | 424 ft | 3 kts | 124° |
| 2026-04-26 19:44 | 47.44291 | -122.30464 | 420 ft | 3 kts | 111° |
| 2026-04-26 19:44 | 47.44298 | -122.30497 | 418 ft | 3 kts | 105° |
| 2026-04-26 19:44 | 47.44305 | -122.30526 | 418 ft | 3 kts | 140° |
| 2026-04-26 19:44 | 47.44310 | -122.30532 | 420 ft | 0 kts | 180° |
| 2026-04-26 19:47 | 47.44307 | -122.30532 | 422 ft | 3 kts | 179° |
| 2026-04-26 19:48 | 47.44273 | -122.30532 | 432 ft | 8 kts | 181° |
| 2026-04-26 19:48 | 47.44192 | -122.30530 | 427 ft | 12 kts | 176° |
| 2026-04-26 19:48 | 47.44110 | -122.30532 | 429 ft | 12 kts | 179° |
| 2026-04-26 19:48 | 47.44007 | -122.30537 | 425 ft | 12 kts | 186° |
| 2026-04-26 19:49 | 47.43964 | -122.30604 | 431 ft | 9 kts | 234° |
| 2026-04-26 19:49 | 47.43904 | -122.30629 | 425 ft | 10 kts | 177° |
| 2026-04-26 19:49 | 47.43833 | -122.30630 | 426 ft | 14 kts | 181° |
| 2026-04-26 19:49 | 47.43694 | -122.30633 | 424 ft | 21 kts | 181° |
| 2026-04-26 19:50 | 47.43556 | -122.30570 | 425 ft | 21 kts | 152° |
| 2026-04-26 19:50 | 47.43408 | -122.30550 | 420 ft | 22 kts | 180° |
| 2026-04-26 19:50 | 47.43252 | -122.30534 | 427 ft | 23 kts | 170° |
| 2026-04-26 19:50 | 47.43119 | -122.30592 | 429 ft | 15 kts | 223° |
| 2026-04-26 19:51 | 47.43127 | -122.30721 | 423 ft | 12 kts | 304° |
| 2026-04-26 19:51 | 47.43195 | -122.30803 | 422 ft | 13 kts | 348° |
| 2026-04-26 19:51 | 47.43239 | -122.30805 | 418 ft | 0 kts | 1° |
| 2026-04-26 19:51 | 47.43336 | -122.30803 | 416 ft | 48 kts | 1° |
| 2026-04-26 19:52 | 47.43913 | -122.30797 | 422 ft | 115 kts | 0° |
| 2026-04-26 19:52 | 47.44901 | -122.30787 | 420 ft | 167 kts | 1° |
| 2026-04-26 19:52 | 47.46162 | -122.30759 | 739 ft | 184 kts | 0° |
| 2026-04-26 19:52 | 47.47446 | -122.30686 | 1506 ft | 184 kts | 0° |
| 2026-04-26 19:53 | 47.48721 | -122.30664 | 2271 ft | 185 kts | 358° |
| 2026-04-26 19:53 | 47.50074 | -122.30656 | 2712 ft | 206 kts | 358° |
| 2026-04-26 19:53 | 47.51590 | -122.30717 | 3028 ft | 230 kts | 357° |
| 2026-04-26 19:53 | 47.53268 | -122.30828 | 3512 ft | 251 kts | 357° |
| 2026-04-26 19:54 | 47.55033 | -122.31016 | 4298 ft | 257 kts | 347° |
| 2026-04-26 19:54 | 47.56661 | -122.32098 | 5134 ft | 260 kts | 324° |
| 2026-04-26 19:54 | 47.58150 | -122.33633 | 6063 ft | 262 kts | 324° |
| 2026-04-26 19:54 | 47.59575 | -122.35332 | 6904 ft | 265 kts | 313° |
| 2026-04-26 19:55 | 47.60629 | -122.37534 | 7713 ft | 268 kts | 297° |
| 2026-04-26 19:55 | 47.61225 | -122.40165 | 8531 ft | 272 kts | 282° |
| 2026-04-26 19:55 | 47.61506 | -122.42953 | 9356 ft | 276 kts | 275° |
| 2026-04-26 19:55 | 47.61345 | -122.45810 | 10134 ft | 282 kts | 258° |
| 2026-04-26 19:56 | 47.60607 | -122.48538 | 10837 ft | 291 kts | 242° |
| 2026-04-26 19:56 | 47.59303 | -122.50983 | 11101 ft | 316 kts | 227° |
| 2026-04-26 19:56 | 47.57701 | -122.53386 | 11283 ft | 339 kts | 227° |
| 2026-04-26 19:56 | 47.55992 | -122.55927 | 11627 ft | 354 kts | 227° |
| 2026-04-26 19:57 | 47.54236 | -122.58528 | 12246 ft | 360 kts | 227° |
| 2026-04-26 19:57 | 47.52259 | -122.60845 | 12911 ft | 368 kts | 210° |
| 2026-04-26 19:57 | 47.49832 | -122.62126 | 13534 ft | 376 kts | 189° |
| 2026-04-26 19:57 | 47.47204 | -122.62098 | 14113 ft | 382 kts | 168° |
| 2026-04-26 19:58 | 47.44717 | -122.60722 | 14669 ft | 385 kts | 149° |
| 2026-04-26 19:58 | 47.42381 | -122.58762 | 15272 ft | 388 kts | 148° |
| 2026-04-26 19:58 | 47.40033 | -122.56761 | 15861 ft | 392 kts | 148° |
| 2026-04-26 19:58 | 47.37662 | -122.54736 | 16436 ft | 396 kts | 148° |
| 2026-04-26 19:59 | 47.35263 | -122.52700 | 17003 ft | 400 kts | 148° |
| 2026-04-26 19:59 | 47.32838 | -122.50652 | 17565 ft | 404 kts | 148° |
| 2026-04-26 19:59 | 47.30386 | -122.48586 | 18122 ft | 408 kts | 148° |
| 2026-04-26 19:59 | 47.27944 | -122.46532 | 18599 ft | 412 kts | 148° |
| 2026-04-26 20:00 | 47.25439 | -122.44433 | 19081 ft | 416 kts | 148° |
| 2026-04-26 20:00 | 47.22911 | -122.42319 | 19596 ft | 419 kts | 148° |
| 2026-04-26 20:00 | 47.20365 | -122.40189 | 20104 ft | 423 kts | 148° |
| 2026-04-26 20:00 | 47.17797 | -122.38038 | 20579 ft | 427 kts | 148° |
| 2026-04-26 20:01 | 47.15205 | -122.35870 | 21054 ft | 431 kts | 148° |
| 2026-04-26 20:01 | 47.12589 | -122.33686 | 21497 ft | 434 kts | 148° |
| 2026-04-26 20:01 | 47.09949 | -122.31488 | 21954 ft | 438 kts | 147° |
| 2026-04-26 20:01 | 47.07288 | -122.29270 | 22388 ft | 442 kts | 147° |
| 2026-04-26 20:02 | 47.04606 | -122.27039 | 22829 ft | 445 kts | 148° |
| 2026-04-26 20:02 | 47.01904 | -122.24795 | 23261 ft | 448 kts | 147° |
| 2026-04-26 20:02 | 46.99110 | -122.22728 | 23627 ft | 454 kts | 155° |
| 2026-04-26 20:02 | 46.97134 | -122.21692 | 23839 ft | 458 kts | 162° |
| 2026-04-26 20:03 | 46.92925 | -122.20512 | 24276 ft | 464 kts | 173° |
| 2026-04-26 20:03 | 46.89705 | -122.20051 | 24596 ft | 466 kts | 173° |
| 2026-04-26 20:03 | 46.86465 | -122.19590 | 24902 ft | 469 kts | 173° |
| 2026-04-26 20:03 | 46.83207 | -122.19126 | 25247 ft | 471 kts | 173° |
| 2026-04-26 20:04 | 46.79944 | -122.18663 | 25601 ft | 472 kts | 173° |
| 2026-04-26 20:04 | 46.76663 | -122.18195 | 25877 ft | 475 kts | 173° |
| 2026-04-26 20:04 | 46.73362 | -122.17720 | 26171 ft | 478 kts | 173° |
| 2026-04-26 20:04 | 46.70093 | -122.17245 | 26462 ft | 480 kts | 173° |
| 2026-04-26 20:05 | 46.66713 | -122.16753 | 26755 ft | 483 kts | 173° |
| 2026-04-26 20:05 | 46.63406 | -122.16275 | 27045 ft | 485 kts | 173° |
| 2026-04-26 20:05 | 46.60042 | -122.15789 | 27380 ft | 486 kts | 173° |
| 2026-04-26 20:05 | 46.56681 | -122.15309 | 27743 ft | 485 kts | 173° |
| 2026-04-26 20:06 | 46.53314 | -122.14830 | 28038 ft | 487 kts | 173° |
| 2026-04-26 20:06 | 46.49937 | -122.14352 | 28307 ft | 489 kts | 173° |
| 2026-04-26 20:06 | 46.46545 | -122.13872 | 28570 ft | 491 kts | 173° |
| 2026-04-26 20:06 | 46.43139 | -122.13388 | 28817 ft | 493 kts | 173° |
| 2026-04-26 20:07 | 46.39720 | -122.12899 | 29039 ft | 495 kts | 173° |
| 2026-04-26 20:07 | 46.36285 | -122.12391 | 29199 ft | 498 kts | 172° |
| 2026-04-26 20:07 | 46.32839 | -122.11737 | 29381 ft | 501 kts | 169° |
| 2026-04-26 20:07 | 46.29397 | -122.10931 | 29615 ft | 501 kts | 168° |
| 2026-04-26 20:08 | 46.25964 | -122.10031 | 29911 ft | 501 kts | 167° |
| 2026-04-26 20:08 | 46.22537 | -122.09104 | 30175 ft | 501 kts | 167° |
| 2026-04-26 20:08 | 46.19106 | -122.08194 | 30424 ft | 502 kts | 167° |
| 2026-04-26 20:08 | 46.15672 | -122.07325 | 30711 ft | 501 kts | 168° |
| 2026-04-26 20:09 | 46.12252 | -122.06497 | 31103 ft | 496 kts | 169° |
| 2026-04-26 20:09 | 46.08846 | -122.05698 | 31388 ft | 496 kts | 169° |
| 2026-04-26 20:09 | 46.05441 | -122.04911 | 31652 ft | 496 kts | 169° |
| 2026-04-26 20:09 | 46.02035 | -122.04124 | 31908 ft | 496 kts | 169° |
| 2026-04-26 20:10 | 45.98630 | -122.03329 | 32163 ft | 496 kts | 169° |
| 2026-04-26 20:10 | 45.95223 | -122.02525 | 32436 ft | 496 kts | 169° |
| 2026-04-26 20:10 | 45.91829 | -122.01717 | 32777 ft | 493 kts | 168° |
| 2026-04-26 20:10 | 45.88439 | -122.00907 | 32945 ft | 495 kts | 168° |
| 2026-04-26 20:11 | 45.85036 | -122.00092 | 33125 ft | 496 kts | 168° |
| 2026-04-26 20:11 | 45.81625 | -121.99279 | 33361 ft | 497 kts | 168° |
| 2026-04-26 20:11 | 45.78211 | -121.98473 | 33609 ft | 497 kts | 168° |
| 2026-04-26 20:12 | 45.71385 | -121.96879 | 34154 ft | 495 kts | 169° |
| 2026-04-26 20:12 | 45.67995 | -121.96089 | 34454 ft | 492 kts | 169° |
| 2026-04-26 20:12 | 45.64623 | -121.95298 | 34722 ft | 490 kts | 169° |
| 2026-04-26 20:12 | 45.61260 | -121.94508 | 34955 ft | 489 kts | 169° |
| 2026-04-26 20:13 | 45.57905 | -121.93723 | 35197 ft | 488 kts | 169° |
| 2026-04-26 20:13 | 45.54557 | -121.92939 | 35383 ft | 488 kts | 169° |
| 2026-04-26 20:13 | 45.51213 | -121.92155 | 35613 ft | 486 kts | 169° |
| 2026-04-26 20:13 | 45.47883 | -121.91374 | 35872 ft | 484 kts | 169° |
| 2026-04-26 20:14 | 45.44568 | -121.90598 | 36058 ft | 483 kts | 169° |
| 2026-04-26 20:14 | 45.41250 | -121.89823 | 36216 ft | 483 kts | 169° |
| 2026-04-26 20:14 | 45.37931 | -121.89051 | 36376 ft | 483 kts | 169° |
| 2026-04-26 20:14 | 45.34613 | -121.88283 | 36546 ft | 483 kts | 169° |
| 2026-04-26 20:15 | 45.31298 | -121.87518 | 36708 ft | 482 kts | 169° |
| 2026-04-26 20:15 | 45.27989 | -121.86757 | 36876 ft | 481 kts | 170° |
| 2026-04-26 20:15 | 45.24725 | -121.86010 | 36905 ft | 482 kts | 170° |
| 2026-04-26 20:16 | 45.18112 | -121.84486 | 36902 ft | 481 kts | 170° |
| 2026-04-26 20:16 | 45.11502 | -121.82950 | 36898 ft | 481 kts | 170° |
| 2026-04-26 20:17 | 45.04898 | -121.81426 | 36900 ft | 480 kts | 170° |
| 2026-04-26 20:17 | 44.98304 | -121.79913 | 36901 ft | 480 kts | 170° |
| 2026-04-26 20:18 | 44.91710 | -121.78414 | 36910 ft | 480 kts | 170° |
| 2026-04-26 20:18 | 44.85112 | -121.76910 | 36923 ft | 480 kts | 170° |
| 2026-04-26 20:19 | 44.78523 | -121.75408 | 36925 ft | 479 kts | 170° |
| 2026-04-26 20:19 | 44.71941 | -121.73909 | 36918 ft | 479 kts | 170° |
| 2026-04-26 20:20 | 44.65367 | -121.72413 | 36924 ft | 478 kts | 170° |
| 2026-04-26 20:20 | 44.58846 | -121.70945 | 36916 ft | 477 kts | 170° |
| 2026-04-26 20:21 | 44.52286 | -121.69470 | 36906 ft | 477 kts | 170° |
| 2026-04-26 20:21 | 44.45725 | -121.67997 | 36906 ft | 477 kts | 170° |
| 2026-04-26 20:22 | 44.39172 | -121.66523 | 36918 ft | 477 kts | 170° |
| 2026-04-26 20:22 | 44.32623 | -121.65047 | 36917 ft | 476 kts | 170° |
| 2026-04-26 20:23 | 44.26083 | -121.63552 | 36915 ft | 476 kts | 170° |
| 2026-04-26 20:23 | 44.19551 | -121.62027 | 36913 ft | 476 kts | 170° |
| 2026-04-26 20:24 | 44.13024 | -121.60503 | 36897 ft | 475 kts | 170° |
| 2026-04-26 20:24 | 44.06496 | -121.58989 | 36893 ft | 475 kts | 170° |
| 2026-04-26 20:25 | 43.99972 | -121.57493 | 36903 ft | 475 kts | 170° |
| 2026-04-26 20:25 | 43.93449 | -121.55995 | 36907 ft | 475 kts | 170° |
| 2026-04-26 20:26 | 43.86925 | -121.54497 | 36908 ft | 475 kts | 170° |
| 2026-04-26 20:26 | 43.80455 | -121.53018 | 36914 ft | 474 kts | 171° |
| 2026-04-26 20:27 | 43.73951 | -121.51534 | 36906 ft | 473 kts | 171° |
| 2026-04-26 20:27 | 43.67451 | -121.50058 | 36894 ft | 473 kts | 170° |
| 2026-04-26 20:28 | 43.60953 | -121.48578 | 36897 ft | 473 kts | 171° |
| 2026-04-26 20:28 | 43.55510 | -121.47342 | 36892 ft | 473 kts | 171° |
| 2026-04-26 20:29 | 43.49066 | -121.45882 | 36890 ft | 472 kts | 171° |
| 2026-04-26 20:29 | 43.42581 | -121.44418 | 36888 ft | 472 kts | 171° |
| 2026-04-26 20:30 | 43.36103 | -121.42958 | 36891 ft | 472 kts | 171° |
| 2026-04-26 20:30 | 43.29627 | -121.41503 | 36884 ft | 471 kts | 171° |
| 2026-04-26 20:31 | 43.23153 | -121.40049 | 36878 ft | 471 kts | 171° |
| 2026-04-26 20:31 | 43.16680 | -121.38597 | 36880 ft | 471 kts | 171° |
| 2026-04-26 20:32 | 43.10207 | -121.37153 | 36880 ft | 471 kts | 171° |
| 2026-04-26 20:32 | 43.03735 | -121.35714 | 36880 ft | 471 kts | 172° |
| 2026-04-26 20:33 | 42.97266 | -121.34277 | 36883 ft | 471 kts | 171° |
| 2026-04-26 20:33 | 42.90799 | -121.32835 | 36885 ft | 471 kts | 171° |
| 2026-04-26 20:34 | 42.84336 | -121.31403 | 36874 ft | 471 kts | 172° |
| 2026-04-26 20:34 | 42.77872 | -121.29974 | 36881 ft | 470 kts | 172° |
| 2026-04-26 20:35 | 42.71454 | -121.28560 | 36882 ft | 470 kts | 172° |
| 2026-04-26 20:35 | 42.64994 | -121.27142 | 36877 ft | 470 kts | 172° |
| 2026-04-26 20:36 | 42.58537 | -121.25729 | 36877 ft | 470 kts | 172° |
| 2026-04-26 20:36 | 42.52085 | -121.24311 | 36871 ft | 470 kts | 172° |
| 2026-04-26 20:37 | 42.45634 | -121.22895 | 36870 ft | 469 kts | 172° |
| 2026-04-26 20:37 | 42.39186 | -121.21489 | 36870 ft | 469 kts | 172° |
| 2026-04-26 20:38 | 42.32740 | -121.20084 | 36864 ft | 469 kts | 172° |
| 2026-04-26 20:38 | 42.26291 | -121.18686 | 36868 ft | 469 kts | 172° |
| 2026-04-26 20:39 | 42.19840 | -121.17285 | 36865 ft | 470 kts | 172° |
| 2026-04-26 20:39 | 42.13387 | -121.15896 | 36864 ft | 470 kts | 172° |
| 2026-04-26 20:40 | 42.06937 | -121.14502 | 36862 ft | 469 kts | 172° |
| 2026-04-26 20:40 | 42.00493 | -121.13106 | 36853 ft | 469 kts | 172° |
| 2026-04-26 20:41 | 41.94047 | -121.11709 | 36851 ft | 469 kts | 172° |
| 2026-04-26 20:41 | 41.87603 | -121.10322 | 36851 ft | 469 kts | 172° |
| 2026-04-26 20:42 | 41.81163 | -121.08947 | 36852 ft | 468 kts | 172° |
| 2026-04-26 20:42 | 41.74775 | -121.07587 | 36856 ft | 468 kts | 172° |
| 2026-04-26 20:43 | 41.68347 | -121.06215 | 36853 ft | 468 kts | 173° |
| 2026-04-26 20:43 | 41.61922 | -121.04841 | 36861 ft | 467 kts | 172° |
| 2026-04-26 20:44 | 41.55499 | -121.03480 | 36868 ft | 467 kts | 172° |
| 2026-04-26 20:44 | 41.49082 | -121.02123 | 36876 ft | 467 kts | 173° |
| 2026-04-26 20:45 | 41.42671 | -121.00766 | 36887 ft | 466 kts | 173° |
| 2026-04-26 20:45 | 41.36264 | -120.99412 | 36895 ft | 466 kts | 173° |
| 2026-04-26 20:46 | 41.29862 | -120.98063 | 36901 ft | 465 kts | 173° |
| 2026-04-26 20:46 | 41.23467 | -120.96715 | 36903 ft | 465 kts | 173° |
| 2026-04-26 20:47 | 41.17084 | -120.95365 | 36912 ft | 464 kts | 173° |
| 2026-04-26 20:47 | 41.10707 | -120.94029 | 36926 ft | 464 kts | 173° |
| 2026-04-26 20:48 | 41.04337 | -120.92708 | 36943 ft | 463 kts | 173° |
| 2026-04-26 20:48 | 40.97956 | -120.91661 | 36944 ft | 461 kts | 179° |
| 2026-04-26 20:49 | 40.91557 | -120.91158 | 36947 ft | 460 kts | 179° |
| 2026-04-26 20:49 | 40.85205 | -120.90641 | 36944 ft | 460 kts | 179° |
| 2026-04-26 20:50 | 40.78810 | -120.90126 | 36945 ft | 460 kts | 179° |
| 2026-04-26 20:50 | 40.72418 | -120.89613 | 36950 ft | 460 kts | 179° |
| 2026-04-26 20:51 | 40.66034 | -120.89096 | 36949 ft | 460 kts | 179° |
| 2026-04-26 20:51 | 40.59650 | -120.88588 | 36930 ft | 459 kts | 179° |
| 2026-04-26 20:52 | 40.53275 | -120.88092 | 36928 ft | 459 kts | 179° |
| 2026-04-26 20:52 | 40.46904 | -120.87601 | 36919 ft | 458 kts | 179° |
| 2026-04-26 20:53 | 40.40536 | -120.87093 | 36920 ft | 458 kts | 179° |
| 2026-04-26 20:53 | 40.34165 | -120.86585 | 36920 ft | 459 kts | 179° |
| 2026-04-26 20:54 | 40.27797 | -120.86084 | 36928 ft | 458 kts | 179° |
| 2026-04-26 20:54 | 40.21477 | -120.85581 | 36903 ft | 458 kts | 179° |
| 2026-04-26 20:55 | 40.15126 | -120.85076 | 36920 ft | 457 kts | 180° |
| 2026-04-26 20:55 | 40.08767 | -120.84584 | 36928 ft | 458 kts | 180° |
| 2026-04-26 20:56 | 40.02409 | -120.84096 | 36932 ft | 458 kts | 180° |
| 2026-04-26 20:56 | 39.96055 | -120.83595 | 36941 ft | 457 kts | 180° |
| 2026-04-26 20:57 | 39.89706 | -120.83094 | 36938 ft | 457 kts | 180° |
| 2026-04-26 20:57 | 39.83360 | -120.82592 | 36941 ft | 457 kts | 180° |
| 2026-04-26 20:58 | 39.77017 | -120.82114 | 36958 ft | 456 kts | 180° |
| 2026-04-26 20:58 | 39.70682 | -120.81643 | 36961 ft | 456 kts | 180° |
| 2026-04-26 20:59 | 39.64355 | -120.81148 | 36956 ft | 455 kts | 180° |
| 2026-04-26 20:59 | 39.58032 | -120.80642 | 36968 ft | 455 kts | 180° |
| 2026-04-26 21:00 | 39.51707 | -120.80143 | 36970 ft | 455 kts | 180° |
| 2026-04-26 21:00 | 39.45426 | -120.79660 | 36974 ft | 455 kts | 180° |
| 2026-04-26 21:01 | 39.39109 | -120.79183 | 36983 ft | 455 kts | 180° |
| 2026-04-26 21:01 | 39.32795 | -120.78703 | 36993 ft | 454 kts | 180° |
| 2026-04-26 21:02 | 39.26487 | -120.78217 | 36983 ft | 454 kts | 180° |
| 2026-04-26 21:02 | 39.20186 | -120.77740 | 36993 ft | 453 kts | 180° |
| 2026-04-26 21:03 | 39.13892 | -120.77263 | 36992 ft | 453 kts | 180° |
| 2026-04-26 21:03 | 39.07608 | -120.76785 | 36984 ft | 452 kts | 181° |
| 2026-04-26 21:04 | 39.01328 | -120.76309 | 36982 ft | 452 kts | 181° |
| 2026-04-26 21:04 | 38.95050 | -120.75831 | 36997 ft | 452 kts | 181° |
| 2026-04-26 21:05 | 38.88772 | -120.75352 | 37008 ft | 452 kts | 181° |
| 2026-04-26 21:05 | 38.82497 | -120.74878 | 37026 ft | 451 kts | 181° |
| 2026-04-26 21:06 | 38.76225 | -120.74409 | 37030 ft | 451 kts | 181° |
| 2026-04-26 21:06 | 38.69958 | -120.73937 | 37014 ft | 451 kts | 181° |
| 2026-04-26 21:07 | 38.63698 | -120.73462 | 36992 ft | 450 kts | 181° |
| 2026-04-26 21:07 | 38.57444 | -120.72993 | 37008 ft | 450 kts | 181° |
| 2026-04-26 21:08 | 38.51188 | -120.72534 | 37020 ft | 450 kts | 181° |
| 2026-04-26 21:08 | 38.44932 | -120.72066 | 37027 ft | 450 kts | 181° |
| 2026-04-26 21:09 | 38.38725 | -120.71602 | 37029 ft | 450 kts | 181° |
| 2026-04-26 21:09 | 38.32474 | -120.71133 | 37016 ft | 450 kts | 181° |
| 2026-04-26 21:10 | 38.26229 | -120.70667 | 37023 ft | 449 kts | 181° |
| 2026-04-26 21:10 | 38.19988 | -120.70205 | 37029 ft | 449 kts | 181° |
| 2026-04-26 21:11 | 38.13753 | -120.69737 | 37013 ft | 449 kts | 181° |
| 2026-04-26 21:11 | 38.07527 | -120.69275 | 37023 ft | 448 kts | 181° |
| 2026-04-26 21:12 | 38.01301 | -120.68816 | 37024 ft | 448 kts | 181° |
| 2026-04-26 21:12 | 37.95082 | -120.68365 | 36999 ft | 448 kts | 181° |
| 2026-04-26 21:13 | 37.88858 | -120.67914 | 37000 ft | 448 kts | 181° |
| 2026-04-26 21:13 | 37.82636 | -120.67459 | 37001 ft | 448 kts | 181° |
| 2026-04-26 21:14 | 37.76420 | -120.66991 | 37004 ft | 447 kts | 181° |
| 2026-04-26 21:14 | 37.70203 | -120.66528 | 36987 ft | 447 kts | 182° |
| 2026-04-26 21:15 | 37.63987 | -120.66073 | 36997 ft | 447 kts | 182° |
| 2026-04-26 21:15 | 37.57771 | -120.65627 | 37003 ft | 447 kts | 182° |
| 2026-04-26 21:16 | 37.51551 | -120.65181 | 36998 ft | 448 kts | 182° |
| 2026-04-26 21:16 | 37.45329 | -120.64729 | 37007 ft | 448 kts | 182° |
| 2026-04-26 21:17 | 37.39106 | -120.64267 | 37011 ft | 448 kts | 182° |
| 2026-04-26 21:17 | 37.32926 | -120.63692 | 36993 ft | 452 kts | 175° |
| 2026-04-26 21:18 | 37.26774 | -120.61791 | 37017 ft | 456 kts | 171° |
| 2026-04-26 21:18 | 37.20633 | -120.59792 | 37012 ft | 456 kts | 171° |
| 2026-04-26 21:19 | 37.14488 | -120.57801 | 37003 ft | 456 kts | 171° |
| 2026-04-26 21:19 | 37.08344 | -120.55816 | 37018 ft | 456 kts | 171° |
| 2026-04-26 21:20 | 37.02202 | -120.53826 | 37032 ft | 456 kts | 171° |
| 2026-04-26 21:20 | 36.97054 | -120.52160 | 37037 ft | 456 kts | 171° |
| 2026-04-26 21:21 | 36.90960 | -120.50189 | 37033 ft | 455 kts | 171° |
| 2026-04-26 21:21 | 36.84829 | -120.48216 | 37039 ft | 455 kts | 171° |
| 2026-04-26 21:22 | 36.78701 | -120.46250 | 37034 ft | 454 kts | 171° |
| 2026-04-26 21:22 | 36.72576 | -120.44286 | 37022 ft | 454 kts | 171° |
| 2026-04-26 21:23 | 36.63392 | -120.41335 | 37041 ft | 454 kts | 171° |
| 2026-04-26 21:23 | 36.57267 | -120.39375 | 37052 ft | 454 kts | 171° |
| 2026-04-26 21:24 | 36.51140 | -120.37426 | 37054 ft | 454 kts | 171° |
| 2026-04-26 21:24 | 36.45019 | -120.35483 | 37051 ft | 454 kts | 171° |
| 2026-04-26 21:25 | 36.38899 | -120.33532 | 37053 ft | 454 kts | 171° |
| 2026-04-26 21:25 | 36.32784 | -120.31585 | 37033 ft | 453 kts | 171° |
| 2026-04-26 21:26 | 36.26671 | -120.29649 | 37032 ft | 453 kts | 171° |
| 2026-04-26 21:26 | 36.20562 | -120.27722 | 37032 ft | 453 kts | 171° |
| 2026-04-26 21:27 | 36.14463 | -120.25796 | 37017 ft | 452 kts | 171° |
| 2026-04-26 21:27 | 36.08373 | -120.23865 | 37022 ft | 452 kts | 171° |
| 2026-04-26 21:28 | 36.02287 | -120.21944 | 37024 ft | 451 kts | 171° |
| 2026-04-26 21:28 | 35.96246 | -120.20044 | 37006 ft | 451 kts | 172° |
| 2026-04-26 21:29 | 35.90169 | -120.18148 | 37018 ft | 451 kts | 172° |
| 2026-04-26 21:29 | 35.84084 | -120.16253 | 37019 ft | 451 kts | 172° |
| 2026-04-26 21:30 | 35.78003 | -120.14347 | 37024 ft | 451 kts | 172° |
| 2026-04-26 21:30 | 35.71926 | -120.12435 | 37016 ft | 451 kts | 172° |
| 2026-04-26 21:31 | 35.65918 | -120.10110 | 37030 ft | 460 kts | 160° |
| 2026-04-26 21:31 | 35.60356 | -120.06087 | 37033 ft | 465 kts | 154° |
| 2026-04-26 21:32 | 35.54840 | -120.01916 | 37016 ft | 466 kts | 154° |
| 2026-04-26 21:32 | 35.49319 | -119.97741 | 37031 ft | 466 kts | 154° |
| 2026-04-26 21:33 | 35.43789 | -119.93591 | 37020 ft | 466 kts | 154° |
| 2026-04-26 21:33 | 35.38295 | -119.89485 | 37012 ft | 466 kts | 155° |
| 2026-04-26 21:34 | 35.32763 | -119.85342 | 37017 ft | 466 kts | 154° |
| 2026-04-26 21:34 | 35.27325 | -119.80982 | 37022 ft | 471 kts | 148° |
| 2026-04-26 21:35 | 35.22121 | -119.76119 | 36984 ft | 471 kts | 149° |
| 2026-04-26 21:35 | 35.16919 | -119.71255 | 36993 ft | 471 kts | 149° |
| 2026-04-26 21:36 | 35.14317 | -119.68824 | 36883 ft | 471 kts | 149° |
| 2026-04-26 21:36 | 35.11713 | -119.66393 | 36322 ft | 472 kts | 149° |
| 2026-04-26 21:36 | 35.09094 | -119.63956 | 35444 ft | 474 kts | 148° |
| 2026-04-26 21:36 | 35.06463 | -119.61509 | 34565 ft | 476 kts | 147° |
| 2026-04-26 21:37 | 35.03821 | -119.59052 | 33558 ft | 478 kts | 147° |
| 2026-04-26 21:37 | 35.01167 | -119.56586 | 32486 ft | 480 kts | 147° |
| 2026-04-26 21:37 | 34.98507 | -119.54115 | 31444 ft | 481 kts | 146° |
| 2026-04-26 21:37 | 34.95869 | -119.51667 | 30373 ft | 483 kts | 146° |
| 2026-04-26 21:38 | 34.93173 | -119.49172 | 29156 ft | 486 kts | 146° |
| 2026-04-26 21:38 | 34.90518 | -119.46714 | 28702 ft | 473 kts | 146° |
| 2026-04-26 21:38 | 34.87907 | -119.44337 | 28122 ft | 465 kts | 146° |
| 2026-04-26 21:38 | 34.85319 | -119.42021 | 27527 ft | 459 kts | 147° |
| 2026-04-26 21:39 | 34.82787 | -119.39778 | 26982 ft | 454 kts | 147° |
| 2026-04-26 21:39 | 34.80244 | -119.37528 | 26418 ft | 450 kts | 147° |
| 2026-04-26 21:39 | 34.77726 | -119.35296 | 25872 ft | 445 kts | 147° |
| 2026-04-26 21:39 | 34.75265 | -119.33104 | 25670 ft | 432 kts | 146° |
| 2026-04-26 21:40 | 34.72868 | -119.30975 | 25333 ft | 423 kts | 147° |
| 2026-04-26 21:40 | 34.70502 | -119.28898 | 24988 ft | 417 kts | 147° |
| 2026-04-26 21:40 | 34.68154 | -119.26852 | 24528 ft | 414 kts | 147° |
| 2026-04-26 21:40 | 34.65822 | -119.24827 | 24107 ft | 411 kts | 147° |
| 2026-04-26 21:41 | 34.63501 | -119.22812 | 23613 ft | 410 kts | 147° |
| 2026-04-26 21:41 | 34.61181 | -119.20810 | 23028 ft | 408 kts | 147° |
| 2026-04-26 21:41 | 34.58878 | -119.18828 | 22517 ft | 404 kts | 147° |
| 2026-04-26 21:41 | 34.56590 | -119.16862 | 22011 ft | 402 kts | 147° |
| 2026-04-26 21:42 | 34.54323 | -119.14899 | 21506 ft | 400 kts | 147° |
| 2026-04-26 21:42 | 34.52080 | -119.12922 | 21000 ft | 398 kts | 147° |
| 2026-04-26 21:42 | 34.49855 | -119.10943 | 20486 ft | 396 kts | 146° |
| 2026-04-26 21:42 | 34.47640 | -119.08971 | 19998 ft | 394 kts | 147° |
| 2026-04-26 21:43 | 34.45435 | -119.07014 | 19500 ft | 392 kts | 147° |
| 2026-04-26 21:43 | 34.43240 | -119.05071 | 19006 ft | 390 kts | 147° |
| 2026-04-26 21:43 | 34.41047 | -119.03150 | 18529 ft | 388 kts | 147° |
| 2026-04-26 21:43 | 34.38853 | -119.01250 | 17997 ft | 387 kts | 148° |
| 2026-04-26 21:44 | 34.36670 | -118.99369 | 17537 ft | 383 kts | 148° |
| 2026-04-26 21:44 | 34.34502 | -118.97504 | 17028 ft | 382 kts | 148° |
| 2026-04-26 21:44 | 34.32352 | -118.95628 | 16577 ft | 379 kts | 146° |
| 2026-04-26 21:44 | 34.30272 | -118.93758 | 16129 ft | 376 kts | 146° |
| 2026-04-26 21:45 | 34.28188 | -118.91851 | 15630 ft | 374 kts | 145° |
| 2026-04-26 21:45 | 34.26108 | -118.89940 | 14830 ft | 370 kts | 145° |
| 2026-04-26 21:45 | 34.24096 | -118.88090 | 14052 ft | 367 kts | 145° |
| 2026-04-26 21:45 | 34.22075 | -118.86227 | 13332 ft | 362 kts | 145° |
| 2026-04-26 21:46 | 34.20137 | -118.84438 | 13168 ft | 340 kts | 145° |
| 2026-04-26 21:46 | 34.18301 | -118.82741 | 12812 ft | 327 kts | 145° |
| 2026-04-26 21:46 | 34.16501 | -118.81077 | 12500 ft | 324 kts | 144° |
| 2026-04-26 21:46 | 34.14773 | -118.79347 | 12243 ft | 321 kts | 142° |
| 2026-04-26 21:47 | 34.13105 | -118.77555 | 11981 ft | 321 kts | 140° |
| 2026-04-26 21:47 | 34.11470 | -118.75737 | 11722 ft | 319 kts | 140° |
| 2026-04-26 21:47 | 34.09848 | -118.73921 | 11460 ft | 317 kts | 140° |
| 2026-04-26 21:47 | 34.08230 | -118.72125 | 11264 ft | 316 kts | 141° |
| 2026-04-26 21:48 | 34.06608 | -118.70343 | 11036 ft | 313 kts | 141° |
| 2026-04-26 21:48 | 34.05016 | -118.68593 | 10867 ft | 307 kts | 138° |
| 2026-04-26 21:48 | 34.03688 | -118.66584 | 10550 ft | 308 kts | 122° |
| 2026-04-26 21:48 | 34.02837 | -118.64205 | 10139 ft | 312 kts | 105° |
| 2026-04-26 21:49 | 34.02510 | -118.61640 | 9805 ft | 310 kts | 96° |
| 2026-04-26 21:49 | 34.02279 | -118.59074 | 9494 ft | 306 kts | 96° |
| 2026-04-26 21:49 | 34.02043 | -118.56537 | 9136 ft | 303 kts | 96° |
| 2026-04-26 21:49 | 34.01805 | -118.54025 | 8703 ft | 303 kts | 96° |
| 2026-04-26 21:50 | 34.01562 | -118.51510 | 8268 ft | 302 kts | 96° |
| 2026-04-26 21:50 | 34.01400 | -118.49829 | 7978 ft | 303 kts | 96° |
| 2026-04-26 21:50 | 34.01096 | -118.46547 | 7802 ft | 287 kts | 92° |
| 2026-04-26 21:50 | 34.01252 | -118.44247 | 7680 ft | 273 kts | 76° |
| 2026-04-26 21:51 | 34.01636 | -118.42050 | 7551 ft | 262 kts | 76° |
| 2026-04-26 21:51 | 34.02003 | -118.39934 | 7345 ft | 255 kts | 76° |
| 2026-04-26 21:51 | 34.02363 | -118.37857 | 7086 ft | 251 kts | 77° |
| 2026-04-26 21:51 | 34.02713 | -118.35818 | 6814 ft | 248 kts | 79° |
| 2026-04-26 21:52 | 34.02984 | -118.33777 | 6506 ft | 246 kts | 83° |
| 2026-04-26 21:52 | 34.03211 | -118.31752 | 6232 ft | 242 kts | 83° |
| 2026-04-26 21:52 | 34.03446 | -118.29760 | 5922 ft | 239 kts | 83° |
| 2026-04-26 21:52 | 34.03686 | -118.27774 | 5576 ft | 240 kts | 82° |
| 2026-04-26 21:53 | 34.03935 | -118.25777 | 5314 ft | 241 kts | 82° |
| 2026-04-26 21:53 | 34.04186 | -118.23786 | 5154 ft | 239 kts | 82° |
| 2026-04-26 21:53 | 34.04431 | -118.21804 | 4987 ft | 239 kts | 82° |
| 2026-04-26 21:53 | 34.04682 | -118.19831 | 4852 ft | 235 kts | 83° |
| 2026-04-26 21:54 | 34.04718 | -118.17914 | 4697 ft | 225 kts | 106° |
| 2026-04-26 21:54 | 34.03969 | -118.16372 | 4612 ft | 207 kts | 142° |
| 2026-04-26 21:54 | 34.02722 | -118.15717 | 4453 ft | 192 kts | 179° |
| 2026-04-26 21:54 | 34.01411 | -118.15798 | 4254 ft | 186 kts | 200° |
| 2026-04-26 21:55 | 34.00303 | -118.16507 | 4116 ft | 178 kts | 219° |
| 2026-04-26 21:55 | 33.99306 | -118.17371 | 3926 ft | 175 kts | 220° |
| 2026-04-26 21:55 | 33.98319 | -118.18250 | 3757 ft | 178 kts | 221° |
| 2026-04-26 21:55 | 33.97504 | -118.19367 | 3555 ft | 178 kts | 243° |
| 2026-04-26 21:56 | 33.97172 | -118.20765 | 3355 ft | 172 kts | 263° |
| 2026-04-26 21:56 | 33.97035 | -118.22152 | 3126 ft | 160 kts | 263° |
| 2026-04-26 21:56 | 33.96909 | -118.23420 | 2930 ft | 144 kts | 262° |
| 2026-04-26 21:56 | 33.96796 | -118.24551 | 2765 ft | 135 kts | 262° |
| 2026-04-26 21:57 | 33.96683 | -118.25675 | 2582 ft | 134 kts | 263° |
| 2026-04-26 21:57 | 33.96572 | -118.26773 | 2407 ft | 131 kts | 262° |
| 2026-04-26 21:57 | 33.96461 | -118.27868 | 2226 ft | 131 kts | 262° |
| 2026-04-26 21:57 | 33.96351 | -118.28953 | 2049 ft | 130 kts | 261° |
| 2026-04-26 21:58 | 33.96242 | -118.30032 | 1869 ft | 130 kts | 262° |
| 2026-04-26 21:58 | 33.96133 | -118.31111 | 1697 ft | 130 kts | 262° |
| 2026-04-26 21:58 | 33.96024 | -118.32193 | 1522 ft | 130 kts | 262° |
| 2026-04-26 21:58 | 33.95914 | -118.33272 | 1343 ft | 133 kts | 261° |
| 2026-04-26 21:59 | 33.95803 | -118.34361 | 1161 ft | 130 kts | 263° |
| 2026-04-26 21:59 | 33.95693 | -118.35449 | 970 ft | 135 kts | 265° |
| 2026-04-26 21:59 | 33.95581 | -118.36547 | 785 ft | 131 kts | 264° |
| 2026-04-26 21:59 | 33.95471 | -118.37630 | 604 ft | 133 kts | 264° |
| 2026-04-26 22:00 | 33.95361 | -118.38729 | 406 ft | 128 kts | 262° |
| 2026-04-26 22:00 | 33.95254 | -118.39806 | 202 ft | 128 kts | 261° |
| 2026-04-26 22:00 | 33.95146 | -118.40861 | 104 ft | 120 kts | 261° |
| 2026-04-26 22:00 | 33.95058 | -118.41732 | 94 ft | 84 kts | 263° |
| 2026-04-26 22:01 | 33.94997 | -118.42203 | 94 ft | 28 kts | 258° |
| 2026-04-26 22:01 | 33.94947 | -118.42367 | 96 ft | 17 kts | 236° |
| 2026-04-26 22:01 | 33.94891 | -118.42438 | 95 ft | 9 kts | 224° |
| 2026-04-26 22:01 | 33.94865 | -118.42464 | 97 ft | 0 kts | 216° |